createdAt,value
2023-05-09T00:00:12.776Z,597.00
2023-05-09T00:00:26.762Z,597.00
2023-05-09T00:00:40.769Z,596.00
2023-05-09T00:01:08.754Z,596.00
2023-05-09T00:01:22.753Z,597.00
2023-05-09T00:01:36.738Z,597.00
2023-05-09T00:01:50.788Z,597.00
2023-05-09T00:02:18.811Z,597.00
2023-05-09T00:02:33.062Z,598.00
2023-05-09T00:02:47.211Z,597.00
2023-05-09T00:03:01.257Z,597.00
2023-05-09T00:03:29.271Z,596.00
2023-05-09T00:03:43.262Z,597.00
2023-05-09T00:03:57.318Z,598.00
2023-05-09T00:04:11.416Z,598.00
2023-05-09T00:04:39.534Z,596.00
2023-05-09T00:04:53.759Z,595.00
2023-05-09T00:05:07.783Z,595.00
2023-05-09T00:05:21.782Z,594.00
2023-05-09T00:05:49.770Z,594.00
2023-05-09T00:06:03.766Z,593.00
2023-05-09T00:06:17.766Z,594.00
2023-05-09T00:06:31.759Z,595.00
2023-05-09T00:06:59.726Z,593.00
2023-05-09T00:07:13.724Z,593.00
2023-05-09T00:07:27.722Z,592.00
2023-05-09T00:07:41.706Z,593.00
2023-05-09T00:08:09.675Z,592.00
2023-05-09T00:08:23.682Z,591.00
2023-05-09T00:08:37.676Z,592.00
2023-05-09T00:08:51.662Z,592.00
2023-05-09T00:09:05.639Z,593.00
2023-05-09T00:09:19.648Z,593.00
2023-05-09T00:09:33.684Z,594.00
2023-05-09T00:09:47.675Z,594.00
2023-05-09T00:10:01.661Z,595.00
2023-05-09T00:10:29.600Z,596.00
2023-05-09T00:10:43.613Z,595.00
2023-05-09T00:10:57.663Z,595.00
2023-05-09T00:11:11.668Z,596.00
2023-05-09T00:11:39.642Z,595.00
2023-05-09T00:11:53.639Z,595.00
2023-05-09T00:12:07.630Z,595.00
2023-05-09T00:12:21.656Z,595.00
2023-05-09T00:12:49.709Z,595.00
2023-05-09T00:13:03.800Z,594.00
2023-05-09T00:13:17.871Z,594.00
2023-05-09T00:13:31.947Z,593.00
2023-05-09T00:13:59.951Z,594.00
2023-05-09T00:14:14.015Z,594.00
2023-05-09T00:14:28.009Z,593.00
2023-05-09T00:14:42.006Z,594.00
2023-05-09T00:15:09.988Z,594.00
2023-05-09T00:15:23.998Z,594.00
2023-05-09T00:15:37.982Z,594.00
2023-05-09T00:15:51.971Z,594.00
2023-05-09T00:16:19.958Z,593.00
2023-05-09T00:16:34.019Z,593.00
2023-05-09T00:16:48.065Z,593.00
2023-05-09T00:17:02.082Z,593.00
2023-05-09T00:17:30.116Z,593.00
2023-05-09T00:17:44.171Z,593.00
2023-05-09T00:17:58.207Z,592.00
2023-05-09T00:18:12.215Z,592.00
2023-05-09T00:18:40.160Z,591.00
2023-05-09T00:18:54.150Z,590.00
2023-05-09T00:19:08.142Z,590.00
2023-05-09T00:19:22.151Z,590.00
2023-05-09T00:19:50.107Z,589.00
2023-05-09T00:20:04.222Z,589.00
2023-05-09T00:20:18.228Z,589.00
2023-05-09T00:20:32.216Z,588.00
2023-05-09T00:21:00.172Z,587.00
2023-05-09T00:21:14.208Z,587.00
2023-05-09T00:21:28.242Z,588.00
2023-05-09T00:21:42.300Z,588.00
2023-05-09T00:22:10.279Z,587.00
2023-05-09T00:22:24.269Z,587.00
2023-05-09T00:22:38.277Z,587.00
2023-05-09T00:22:52.267Z,586.00
2023-05-09T00:23:20.228Z,585.00
2023-05-09T00:23:34.250Z,585.00
2023-05-09T00:23:48.224Z,584.00
2023-05-09T00:24:02.203Z,584.00
2023-05-09T00:24:30.189Z,584.00
2023-05-09T00:24:44.187Z,584.00
2023-05-09T00:24:58.200Z,584.00
2023-05-09T00:25:12.344Z,584.00
2023-05-09T00:25:40.430Z,583.00
2023-05-09T00:25:54.417Z,583.00
2023-05-09T00:26:08.410Z,583.00
2023-05-09T00:26:22.386Z,582.00
2023-05-09T00:26:50.341Z,582.00
2023-05-09T00:27:04.335Z,583.00
2023-05-09T00:27:18.329Z,583.00
2023-05-09T00:27:32.323Z,584.00
2023-05-09T00:28:00.281Z,588.00
2023-05-09T00:28:14.266Z,587.00
2023-05-09T00:28:28.264Z,587.00
2023-05-09T00:28:42.246Z,587.00
2023-05-09T00:29:10.198Z,589.00
2023-05-09T00:29:24.202Z,589.00
2023-05-09T00:29:38.202Z,589.00
2023-05-09T00:29:52.208Z,588.00
2023-05-09T00:30:20.178Z,589.00
2023-05-09T00:30:34.167Z,589.00
2023-05-09T00:30:48.166Z,589.00
2023-05-09T00:31:02.141Z,589.00
2023-05-09T00:31:30.131Z,588.00
2023-05-09T00:31:44.153Z,588.00
2023-05-09T00:31:58.189Z,588.00
2023-05-09T00:32:12.309Z,587.00
2023-05-09T00:32:40.453Z,587.00
2023-05-09T00:32:54.529Z,587.00
2023-05-09T00:33:08.566Z,587.00
2023-05-09T00:33:22.556Z,587.00
2023-05-09T00:33:50.522Z,586.00
2023-05-09T00:34:04.533Z,586.00
2023-05-09T00:34:18.536Z,585.00
2023-05-09T00:34:32.525Z,585.00
2023-05-09T00:35:00.496Z,586.00
2023-05-09T00:35:14.923Z,586.00
2023-05-09T00:35:29.099Z,585.00
2023-05-09T00:35:43.087Z,585.00
2023-05-09T00:36:11.115Z,586.00
2023-05-09T00:36:25.113Z,586.00
2023-05-09T00:36:39.097Z,585.00
2023-05-09T00:36:53.080Z,585.00
2023-05-09T00:37:21.031Z,584.00
2023-05-09T00:37:35.012Z,583.00
2023-05-09T00:37:48.996Z,584.00
2023-05-09T00:38:03.010Z,583.00
2023-05-09T00:38:30.978Z,583.00
2023-05-09T00:38:44.964Z,582.00
2023-05-09T00:38:58.944Z,582.00
2023-05-09T00:39:12.946Z,581.00
2023-05-09T00:39:40.889Z,581.00
2023-05-09T00:39:54.891Z,581.00
2023-05-09T00:40:08.894Z,583.00
2023-05-09T00:40:22.900Z,583.00
2023-05-09T00:40:50.854Z,582.00
2023-05-09T00:41:04.867Z,583.00
2023-05-09T00:41:18.848Z,583.00
2023-05-09T00:41:32.857Z,583.00
2023-05-09T00:42:00.920Z,584.00
2023-05-09T00:42:14.905Z,583.00
2023-05-09T00:42:28.887Z,584.00
2023-05-09T00:42:42.874Z,584.00
2023-05-09T00:43:10.836Z,585.00
2023-05-09T00:43:24.822Z,585.00
2023-05-09T00:43:38.814Z,584.00
2023-05-09T00:43:52.804Z,584.00
2023-05-09T00:44:20.790Z,584.00
2023-05-09T00:44:34.788Z,584.00
2023-05-09T00:44:48.790Z,584.00
2023-05-09T00:45:02.807Z,583.00
2023-05-09T00:45:30.781Z,582.00
2023-05-09T00:45:44.814Z,582.00
2023-05-09T00:45:58.864Z,582.00
2023-05-09T00:46:12.893Z,581.00
2023-05-09T00:46:40.882Z,582.00
2023-05-09T00:46:54.875Z,582.00
2023-05-09T00:47:08.870Z,582.00
2023-05-09T00:47:22.919Z,581.00
2023-05-09T00:47:50.902Z,581.00
2023-05-09T00:48:05.017Z,581.00
2023-05-09T00:48:19.058Z,580.00
2023-05-09T00:48:33.056Z,580.00
2023-05-09T00:49:01.007Z,580.00
2023-05-09T00:49:15.007Z,581.00
2023-05-09T00:49:29.000Z,581.00
2023-05-09T00:49:43.001Z,581.00
2023-05-09T00:50:11.035Z,581.00
2023-05-09T00:50:25.184Z,581.00
2023-05-09T00:50:39.168Z,581.00
2023-05-09T00:50:53.308Z,580.00
2023-05-09T00:51:21.304Z,579.00
2023-05-09T00:51:35.330Z,580.00
2023-05-09T00:51:49.324Z,579.00
2023-05-09T00:52:03.309Z,580.00
2023-05-09T00:52:31.257Z,580.00
2023-05-09T00:52:45.252Z,579.00
2023-05-09T00:52:59.251Z,579.00
2023-05-09T00:53:13.305Z,579.00
2023-05-09T00:53:41.322Z,580.00
2023-05-09T00:53:55.324Z,580.00
2023-05-09T00:54:09.394Z,580.00
2023-05-09T00:54:23.408Z,580.00
2023-05-09T00:54:51.377Z,580.00
2023-05-09T00:55:05.391Z,579.00
2023-05-09T00:55:19.391Z,579.00
2023-05-09T00:55:33.378Z,578.00
2023-05-09T00:56:01.332Z,579.00
2023-05-09T00:56:15.321Z,579.00
2023-05-09T00:56:29.311Z,579.00
2023-05-09T00:56:43.324Z,580.00
2023-05-09T00:57:11.291Z,580.00
2023-05-09T00:57:25.278Z,580.00
2023-05-09T00:57:39.265Z,580.00
2023-05-09T00:57:53.249Z,580.00
2023-05-09T00:58:21.226Z,581.00
2023-05-09T00:58:35.221Z,581.00
2023-05-09T00:58:49.205Z,580.00
2023-05-09T00:59:03.196Z,580.00
2023-05-09T00:59:31.179Z,580.00
2023-05-09T00:59:45.172Z,580.00
2023-05-09T00:59:59.169Z,579.00
2023-05-09T01:00:13.481Z,579.00
2023-05-09T01:00:27.657Z,578.00
2023-05-09T01:00:41.678Z,578.00
2023-05-09T01:00:55.695Z,578.00
2023-05-09T01:01:09.872Z,578.00
2023-05-09T01:01:23.926Z,578.00
2023-05-09T01:01:52.072Z,577.00
2023-05-09T01:02:06.145Z,576.00
2023-05-09T01:02:20.195Z,576.00
2023-05-09T01:02:34.232Z,577.00
2023-05-09T01:03:02.351Z,576.00
2023-05-09T01:03:16.566Z,576.00
2023-05-09T01:03:30.718Z,576.00
2023-05-09T01:03:44.903Z,575.00
2023-05-09T01:04:12.968Z,576.00
2023-05-09T01:04:26.993Z,576.00
2023-05-09T01:04:41.004Z,576.00
2023-05-09T01:04:54.990Z,576.00
2023-05-09T01:05:22.939Z,575.00
2023-05-09T01:05:37.051Z,575.00
2023-05-09T01:05:51.052Z,576.00
2023-05-09T01:06:05.044Z,575.00
2023-05-09T01:06:33.015Z,574.00
2023-05-09T01:06:47.027Z,575.00
2023-05-09T01:07:01.025Z,575.00
2023-05-09T01:07:15.019Z,575.00
2023-05-09T01:07:42.988Z,575.00
2023-05-09T01:07:56.984Z,576.00
2023-05-09T01:08:10.990Z,576.00
2023-05-09T01:08:24.974Z,576.00
2023-05-09T01:08:52.962Z,576.00
2023-05-09T01:09:06.967Z,576.00
2023-05-09T01:09:20.947Z,576.00
2023-05-09T01:09:34.968Z,577.00
2023-05-09T01:10:02.944Z,576.00
2023-05-09T01:10:16.923Z,577.00
2023-05-09T01:10:30.919Z,577.00
2023-05-09T01:10:44.904Z,578.00
2023-05-09T01:11:12.896Z,577.00
2023-05-09T01:11:26.906Z,577.00
2023-05-09T01:11:40.898Z,578.00
2023-05-09T01:11:54.882Z,577.00
2023-05-09T01:12:22.832Z,577.00
2023-05-09T01:12:36.844Z,577.00
2023-05-09T01:12:50.883Z,578.00
2023-05-09T01:13:05.092Z,577.00
2023-05-09T01:13:19.163Z,578.00
2023-05-09T01:13:33.194Z,578.00
2023-05-09T01:13:47.183Z,578.00
2023-05-09T01:14:01.185Z,578.00
2023-05-09T01:14:15.170Z,578.00
2023-05-09T01:14:43.140Z,579.00
2023-05-09T01:14:57.133Z,579.00
2023-05-09T01:15:11.190Z,578.00
2023-05-09T01:15:25.220Z,580.00
2023-05-09T01:15:53.200Z,580.00
2023-05-09T01:16:07.212Z,579.00
2023-05-09T01:16:21.295Z,580.00
2023-05-09T01:16:35.365Z,579.00
2023-05-09T01:17:03.333Z,579.00
2023-05-09T01:17:17.335Z,578.00
2023-05-09T01:17:31.375Z,579.00
2023-05-09T01:17:45.404Z,580.00
2023-05-09T01:18:13.476Z,579.00
2023-05-09T01:18:27.510Z,579.00
2023-05-09T01:18:41.492Z,580.00
2023-05-09T01:18:55.491Z,581.00
2023-05-09T01:19:23.452Z,582.00
2023-05-09T01:19:37.437Z,582.00
2023-05-09T01:19:51.434Z,581.00
2023-05-09T01:20:05.548Z,581.00
2023-05-09T01:20:33.591Z,581.00
2023-05-09T01:20:47.714Z,581.00
2023-05-09T01:21:01.706Z,581.00
2023-05-09T01:21:15.697Z,582.00
2023-05-09T01:21:43.653Z,581.00
2023-05-09T01:21:57.661Z,582.00
2023-05-09T01:22:11.641Z,582.00
2023-05-09T01:22:25.636Z,582.00
2023-05-09T01:22:53.583Z,582.00
2023-05-09T01:23:07.589Z,581.00
2023-05-09T01:23:21.578Z,579.00
2023-05-09T01:23:35.592Z,579.00
2023-05-09T01:24:03.555Z,579.00
2023-05-09T01:24:17.550Z,578.00
2023-05-09T01:24:31.545Z,579.00
2023-05-09T01:24:45.546Z,578.00
2023-05-09T01:25:14.259Z,578.00
2023-05-09T01:25:28.501Z,578.00
2023-05-09T01:25:42.482Z,577.00
2023-05-09T01:25:56.478Z,578.00
2023-05-09T01:26:10.464Z,578.00
2023-05-09T01:26:24.457Z,578.00
2023-05-09T01:26:38.441Z,578.00
2023-05-09T01:26:52.431Z,579.00
2023-05-09T01:27:06.432Z,579.00
2023-05-09T01:27:34.409Z,578.00
2023-05-09T01:27:48.404Z,578.00
2023-05-09T01:28:02.404Z,579.00
2023-05-09T01:28:16.393Z,579.00
2023-05-09T01:28:44.349Z,579.00
2023-05-09T01:28:58.340Z,579.00
2023-05-09T01:29:12.335Z,579.00
2023-05-09T01:29:26.318Z,579.00
2023-05-09T01:29:54.267Z,579.00
2023-05-09T01:30:08.275Z,578.00
2023-05-09T01:30:22.252Z,579.00
2023-05-09T01:30:36.240Z,579.00
2023-05-09T01:31:04.221Z,580.00
2023-05-09T01:31:18.298Z,580.00
2023-05-09T01:31:32.336Z,580.00
2023-05-09T01:31:46.428Z,579.00
2023-05-09T01:32:14.449Z,578.00
2023-05-09T01:32:28.482Z,578.00
2023-05-09T01:32:42.568Z,578.00
2023-05-09T01:32:56.634Z,578.00
2023-05-09T01:33:24.613Z,578.00
2023-05-09T01:33:38.623Z,578.00
2023-05-09T01:33:52.623Z,578.00
2023-05-09T01:34:06.625Z,578.00
2023-05-09T01:34:34.575Z,579.00
2023-05-09T01:34:48.586Z,579.00
2023-05-09T01:35:02.591Z,580.00
2023-05-09T01:35:16.816Z,581.00
2023-05-09T01:35:45.016Z,580.00
2023-05-09T01:35:59.117Z,581.00
2023-05-09T01:36:13.108Z,581.00
2023-05-09T01:36:27.092Z,581.00
2023-05-09T01:36:55.070Z,580.00
2023-05-09T01:37:09.081Z,581.00
2023-05-09T01:37:23.097Z,581.00
2023-05-09T01:37:37.105Z,581.00
2023-05-09T01:38:05.056Z,580.00
2023-05-09T01:38:19.041Z,581.00
2023-05-09T01:38:33.041Z,580.00
2023-05-09T01:38:47.041Z,579.00
2023-05-09T01:39:01.039Z,579.00
2023-05-09T01:39:15.035Z,579.00
2023-05-09T01:39:29.029Z,579.00
2023-05-09T01:39:43.016Z,579.00
2023-05-09T01:39:57.079Z,579.00
2023-05-09T01:40:25.032Z,581.00
2023-05-09T01:40:39.022Z,580.00
2023-05-09T01:40:53.011Z,581.00
2023-05-09T01:41:07.016Z,580.00
2023-05-09T01:41:34.964Z,581.00
2023-05-09T01:41:48.955Z,581.00
2023-05-09T01:42:02.980Z,582.00
2023-05-09T01:42:16.973Z,582.00
2023-05-09T01:42:44.923Z,581.00
2023-05-09T01:42:58.919Z,580.00
2023-05-09T01:43:12.900Z,580.00
2023-05-09T01:43:26.901Z,580.00
2023-05-09T01:43:54.948Z,580.00
2023-05-09T01:44:09.020Z,580.00
2023-05-09T01:44:23.086Z,581.00
2023-05-09T01:44:37.061Z,581.00
2023-05-09T01:45:05.142Z,582.00
2023-05-09T01:45:19.150Z,581.00
2023-05-09T01:45:33.132Z,581.00
2023-05-09T01:45:47.105Z,581.00
2023-05-09T01:46:15.095Z,580.00
2023-05-09T01:46:29.174Z,579.00
2023-05-09T01:46:43.274Z,578.00
2023-05-09T01:46:57.347Z,578.00
2023-05-09T01:47:25.367Z,576.00
2023-05-09T01:47:39.385Z,576.00
2023-05-09T01:47:53.445Z,577.00
2023-05-09T01:48:07.520Z,578.00
2023-05-09T01:48:35.492Z,577.00
2023-05-09T01:48:49.486Z,576.00
2023-05-09T01:49:03.532Z,576.00
2023-05-09T01:49:17.574Z,575.00
2023-05-09T01:49:45.527Z,575.00
2023-05-09T01:49:59.506Z,575.00
2023-05-09T01:50:13.508Z,575.00
2023-05-09T01:50:27.528Z,576.00
2023-05-09T01:50:55.488Z,575.00
2023-05-09T01:51:09.603Z,575.00
2023-05-09T01:51:23.600Z,575.00
2023-05-09T01:51:37.602Z,576.00
2023-05-09T01:51:51.594Z,575.00
2023-05-09T01:52:05.582Z,574.00
2023-05-09T01:52:19.629Z,574.00
2023-05-09T01:52:33.622Z,573.00
2023-05-09T01:52:47.616Z,573.00
2023-05-09T01:53:15.588Z,573.00
2023-05-09T01:53:29.567Z,573.00
2023-05-09T01:53:43.572Z,573.00
2023-05-09T01:53:57.552Z,573.00
2023-05-09T01:54:25.538Z,572.00
2023-05-09T01:54:39.540Z,572.00
2023-05-09T01:54:53.518Z,572.00
2023-05-09T01:55:07.515Z,572.00
2023-05-09T01:55:35.506Z,572.00
2023-05-09T01:55:49.500Z,572.00
2023-05-09T01:56:03.495Z,572.00
2023-05-09T01:56:17.475Z,572.00
2023-05-09T01:56:45.467Z,572.00
2023-05-09T01:56:59.463Z,572.00
2023-05-09T01:57:13.455Z,572.00
2023-05-09T01:57:27.445Z,572.00
2023-05-09T01:57:55.412Z,572.00
2023-05-09T01:58:09.395Z,572.00
2023-05-09T01:58:23.383Z,572.00
2023-05-09T01:58:37.369Z,572.00
2023-05-09T01:59:05.379Z,572.00
2023-05-09T01:59:19.385Z,571.00
2023-05-09T01:59:33.381Z,570.00
2023-05-09T01:59:47.362Z,570.00
2023-05-09T02:00:15.309Z,570.00
2023-05-09T02:00:29.339Z,571.00
2023-05-09T02:00:43.346Z,571.00
2023-05-09T02:00:57.387Z,571.00
2023-05-09T02:01:25.368Z,571.00
2023-05-09T02:01:39.363Z,572.00
2023-05-09T02:01:53.375Z,572.00
2023-05-09T02:02:07.442Z,572.00
2023-05-09T02:02:35.543Z,571.00
2023-05-09T02:02:49.632Z,572.00
2023-05-09T02:03:03.730Z,571.00
2023-05-09T02:03:17.784Z,570.00
2023-05-09T02:03:45.750Z,570.00
2023-05-09T02:03:59.736Z,570.00
2023-05-09T02:04:13.734Z,569.00
2023-05-09T02:04:27.742Z,570.00
2023-05-09T02:04:41.752Z,570.00
2023-05-09T02:04:55.779Z,570.00
2023-05-09T02:05:09.766Z,570.00
2023-05-09T02:05:23.769Z,570.00
2023-05-09T02:05:37.757Z,571.00
2023-05-09T02:06:05.810Z,570.00
2023-05-09T02:06:19.932Z,570.00
2023-05-09T02:06:33.922Z,570.00
2023-05-09T02:06:47.940Z,570.00
2023-05-09T02:07:15.912Z,571.00
2023-05-09T02:07:29.886Z,572.00
2023-05-09T02:07:43.874Z,571.00
2023-05-09T02:07:57.858Z,570.00
2023-05-09T02:08:25.826Z,570.00
2023-05-09T02:08:39.821Z,569.00
2023-05-09T02:08:53.817Z,569.00
2023-05-09T02:09:07.822Z,568.00
2023-05-09T02:09:35.787Z,568.00
2023-05-09T02:09:49.778Z,569.00
2023-05-09T02:10:04.326Z,568.00
2023-05-09T02:10:18.330Z,566.00
2023-05-09T02:10:46.302Z,566.00
2023-05-09T02:11:00.288Z,566.00
2023-05-09T02:11:14.286Z,566.00
2023-05-09T02:11:28.274Z,567.00
2023-05-09T02:11:56.241Z,567.00
2023-05-09T02:12:10.251Z,566.00
2023-05-09T02:12:24.230Z,567.00
2023-05-09T02:12:38.244Z,566.00
2023-05-09T02:13:06.245Z,566.00
2023-05-09T02:13:20.368Z,566.00
2023-05-09T02:13:34.393Z,566.00
2023-05-09T02:13:48.383Z,566.00
2023-05-09T02:14:16.350Z,564.00
2023-05-09T02:14:30.361Z,565.00
2023-05-09T02:14:44.357Z,566.00
2023-05-09T02:14:58.345Z,566.00
2023-05-09T02:15:26.334Z,567.00
2023-05-09T02:15:40.328Z,567.00
2023-05-09T02:15:54.318Z,566.00
2023-05-09T02:16:08.374Z,566.00
2023-05-09T02:16:36.358Z,566.00
2023-05-09T02:16:50.411Z,567.00
2023-05-09T02:17:04.675Z,568.00
2023-05-09T02:17:18.721Z,568.00
2023-05-09T02:17:46.699Z,568.00
2023-05-09T02:18:00.762Z,568.00
2023-05-09T02:18:14.793Z,568.00
2023-05-09T02:18:28.788Z,569.00
2023-05-09T02:18:56.756Z,570.00
2023-05-09T02:19:10.750Z,570.00
2023-05-09T02:19:24.760Z,570.00
2023-05-09T02:19:38.748Z,570.00
2023-05-09T02:20:06.729Z,570.00
2023-05-09T02:20:20.725Z,571.00
2023-05-09T02:20:34.722Z,570.00
2023-05-09T02:20:48.740Z,570.00
2023-05-09T02:21:16.775Z,571.00
2023-05-09T02:21:30.934Z,570.00
2023-05-09T02:21:44.914Z,570.00
2023-05-09T02:21:58.898Z,570.00
2023-05-09T02:22:26.860Z,570.00
2023-05-09T02:22:40.858Z,570.00
2023-05-09T02:22:54.849Z,569.00
2023-05-09T02:23:08.853Z,569.00
2023-05-09T02:23:36.817Z,569.00
2023-05-09T02:23:50.814Z,569.00
2023-05-09T02:24:04.802Z,569.00
2023-05-09T02:24:18.803Z,570.00
2023-05-09T02:24:46.767Z,569.00
2023-05-09T02:25:00.755Z,569.00
2023-05-09T02:25:14.990Z,569.00
2023-05-09T02:25:29.211Z,568.00
2023-05-09T02:25:57.160Z,568.00
2023-05-09T02:26:11.144Z,569.00
2023-05-09T02:26:25.128Z,568.00
2023-05-09T02:26:39.137Z,567.00
2023-05-09T02:27:07.135Z,567.00
2023-05-09T02:27:21.133Z,568.00
2023-05-09T02:27:35.114Z,568.00
2023-05-09T02:27:49.105Z,568.00
2023-05-09T02:28:17.046Z,568.00
2023-05-09T02:28:31.036Z,569.00
2023-05-09T02:28:45.028Z,570.00
2023-05-09T02:28:59.037Z,570.00
2023-05-09T02:29:27.021Z,572.00
2023-05-09T02:29:41.033Z,570.00
2023-05-09T02:29:55.014Z,570.00
2023-05-09T02:30:09.005Z,570.00
2023-05-09T02:30:36.982Z,570.00
2023-05-09T02:30:50.980Z,570.00
2023-05-09T02:31:04.985Z,570.00
2023-05-09T02:31:18.987Z,570.00
2023-05-09T02:31:47.004Z,569.00
2023-05-09T02:32:01.020Z,568.00
2023-05-09T02:32:15.025Z,568.00
2023-05-09T02:32:29.051Z,568.00
2023-05-09T02:32:57.087Z,568.00
2023-05-09T02:33:11.136Z,568.00
2023-05-09T02:33:25.146Z,568.00
2023-05-09T02:33:39.148Z,568.00
2023-05-09T02:34:07.112Z,570.00
2023-05-09T02:34:21.092Z,569.00
2023-05-09T02:34:35.080Z,568.00
2023-05-09T02:34:49.069Z,568.00
2023-05-09T02:35:17.082Z,568.00
2023-05-09T02:35:31.109Z,567.00
2023-05-09T02:35:45.113Z,568.00
2023-05-09T02:35:59.114Z,568.00
2023-05-09T02:36:27.073Z,566.00
2023-05-09T02:36:41.175Z,568.00
2023-05-09T02:36:55.180Z,567.00
2023-05-09T02:37:09.164Z,567.00
2023-05-09T02:37:37.131Z,568.00
2023-05-09T02:37:51.128Z,568.00
2023-05-09T02:38:05.109Z,568.00
2023-05-09T02:38:19.096Z,568.00
2023-05-09T02:38:47.091Z,568.00
2023-05-09T02:39:01.117Z,568.00
2023-05-09T02:39:15.487Z,567.00
2023-05-09T02:39:29.507Z,567.00
2023-05-09T02:39:57.479Z,567.00
2023-05-09T02:40:11.472Z,567.00
2023-05-09T02:40:25.476Z,567.00
2023-05-09T02:40:39.458Z,566.00
2023-05-09T02:41:07.416Z,568.00
2023-05-09T02:41:21.412Z,568.00
2023-05-09T02:41:35.401Z,568.00
2023-05-09T02:41:49.418Z,569.00
2023-05-09T02:42:17.384Z,568.00
2023-05-09T02:42:31.368Z,568.00
2023-05-09T02:42:45.358Z,567.00
2023-05-09T02:42:59.342Z,567.00
2023-05-09T02:43:27.314Z,568.00
2023-05-09T02:43:41.312Z,568.00
2023-05-09T02:43:55.300Z,567.00
2023-05-09T02:44:09.301Z,567.00
2023-05-09T02:44:37.267Z,566.00
2023-05-09T02:44:51.256Z,566.00
2023-05-09T02:45:05.257Z,565.00
2023-05-09T02:45:19.245Z,565.00
2023-05-09T02:45:47.256Z,565.00
2023-05-09T02:46:01.418Z,566.00
2023-05-09T02:46:15.497Z,566.00
2023-05-09T02:46:29.524Z,566.00
2023-05-09T02:46:57.496Z,565.00
2023-05-09T02:47:11.499Z,565.00
2023-05-09T02:47:25.513Z,566.00
2023-05-09T02:47:39.665Z,566.00
2023-05-09T02:47:53.822Z,566.00
2023-05-09T02:48:08.968Z,566.00
2023-05-09T02:48:20.830Z,565.00
2023-05-09T02:48:34.813Z,565.00
2023-05-09T02:48:48.815Z,565.00
2023-05-09T02:49:30.870Z,566.00
2023-05-09T02:49:32.489Z,567.00
2023-05-09T02:49:44.277Z,566.00
2023-05-09T02:49:58.272Z,567.00
2023-05-09T02:50:26.216Z,567.00
2023-05-09T02:50:40.196Z,566.00
2023-05-09T02:50:54.179Z,567.00
2023-05-09T02:51:08.172Z,566.00
2023-05-09T02:51:36.136Z,565.00
2023-05-09T02:51:50.238Z,564.00
2023-05-09T02:52:04.238Z,564.00
2023-05-09T02:52:18.230Z,564.00
2023-05-09T02:52:32.228Z,564.00
2023-05-09T02:52:46.220Z,563.00
2023-05-09T02:53:00.231Z,563.00
2023-05-09T02:53:14.228Z,563.00
2023-05-09T02:53:28.220Z,562.00
2023-05-09T02:53:56.174Z,562.00
2023-05-09T02:54:10.175Z,562.00
2023-05-09T02:54:24.157Z,562.00
2023-05-09T02:54:38.142Z,561.00
2023-05-09T02:55:06.108Z,564.00
2023-05-09T02:55:20.107Z,564.00
2023-05-09T02:55:34.109Z,563.00
2023-05-09T02:55:48.102Z,565.00
2023-05-09T02:56:16.061Z,565.00
2023-05-09T02:56:30.049Z,565.00
2023-05-09T02:56:44.054Z,565.00
2023-05-09T02:56:58.065Z,565.00
2023-05-09T02:57:26.030Z,565.00
2023-05-09T02:57:40.033Z,565.00
2023-05-09T02:58:05.382Z,565.00
2023-05-09T02:58:14.118Z,565.00
2023-05-09T02:58:35.597Z,563.00
2023-05-09T02:58:49.594Z,564.00
2023-05-09T02:59:03.584Z,564.00
2023-05-09T02:59:17.576Z,563.00
2023-05-09T02:59:45.539Z,564.00
2023-05-09T02:59:59.525Z,563.00
2023-05-09T03:00:13.522Z,563.00
2023-05-09T03:00:27.496Z,563.00
2023-05-09T03:00:55.484Z,564.00
2023-05-09T03:01:09.500Z,564.00
2023-05-09T03:01:23.538Z,565.00
2023-05-09T03:01:37.633Z,564.00
2023-05-09T03:02:05.648Z,564.00
2023-05-09T03:02:19.767Z,563.00
2023-05-09T03:02:33.928Z,562.00
2023-05-09T03:02:48.142Z,562.00
2023-05-09T03:03:16.304Z,562.00
2023-05-09T03:03:30.416Z,562.00
2023-05-09T03:03:44.562Z,561.00
2023-05-09T03:03:58.816Z,560.00
2023-05-09T03:04:26.819Z,560.00
2023-05-09T03:04:40.811Z,561.00
2023-05-09T03:04:54.803Z,562.00
2023-05-09T03:05:08.826Z,562.00
2023-05-09T03:05:36.782Z,561.00
2023-05-09T03:05:50.781Z,560.00
2023-05-09T03:06:04.776Z,560.00
2023-05-09T03:06:18.766Z,560.00
2023-05-09T03:06:46.737Z,559.00
2023-05-09T03:07:00.852Z,560.00
2023-05-09T03:07:14.862Z,560.00
2023-05-09T03:07:28.854Z,560.00
2023-05-09T03:07:56.804Z,561.00
2023-05-09T03:08:10.811Z,562.00
2023-05-09T03:08:24.799Z,562.00
2023-05-09T03:08:38.799Z,562.00
2023-05-09T03:09:06.802Z,562.00
2023-05-09T03:09:20.827Z,562.00
2023-05-09T03:09:34.826Z,562.00
2023-05-09T03:09:48.822Z,562.00
2023-05-09T03:10:16.786Z,561.00
2023-05-09T03:10:30.785Z,560.00
2023-05-09T03:10:44.776Z,560.00
2023-05-09T03:10:58.777Z,561.00
2023-05-09T03:11:26.717Z,560.00
2023-05-09T03:11:40.703Z,560.00
2023-05-09T03:11:54.692Z,560.00
2023-05-09T03:12:08.670Z,561.00
2023-05-09T03:12:36.633Z,561.00
2023-05-09T03:12:50.646Z,561.00
2023-05-09T03:13:04.676Z,561.00
2023-05-09T03:13:18.792Z,561.00
2023-05-09T03:13:46.773Z,562.00
2023-05-09T03:14:00.771Z,562.00
2023-05-09T03:14:14.781Z,562.00
2023-05-09T03:14:28.781Z,562.00
2023-05-09T03:14:56.758Z,562.00
2023-05-09T03:15:10.742Z,562.00
2023-05-09T03:15:24.772Z,562.00
2023-05-09T03:15:38.791Z,561.00
2023-05-09T03:16:06.819Z,561.00
2023-05-09T03:16:20.879Z,560.00
2023-05-09T03:16:34.884Z,560.00
2023-05-09T03:16:48.892Z,559.00
2023-05-09T03:17:16.867Z,559.00
2023-05-09T03:17:30.880Z,560.00
2023-05-09T03:17:44.899Z,560.00
2023-05-09T03:17:58.946Z,559.00
2023-05-09T03:18:26.950Z,560.00
2023-05-09T03:18:40.942Z,560.00
2023-05-09T03:18:54.934Z,560.00
2023-05-09T03:19:08.919Z,560.00
2023-05-09T03:19:36.875Z,560.00
2023-05-09T03:19:50.878Z,560.00
2023-05-09T03:20:04.877Z,561.00
2023-05-09T03:20:18.896Z,561.00
2023-05-09T03:20:46.842Z,562.00
2023-05-09T03:21:00.829Z,562.00
2023-05-09T03:21:14.818Z,563.00
2023-05-09T03:21:28.811Z,561.00
2023-05-09T03:21:56.776Z,560.00
2023-05-09T03:22:10.889Z,561.00
2023-05-09T03:22:24.863Z,561.00
2023-05-09T03:22:38.871Z,561.00
2023-05-09T03:23:06.845Z,561.00
2023-05-09T03:23:20.851Z,560.00
2023-05-09T03:23:34.862Z,560.00
2023-05-09T03:23:48.852Z,559.00
2023-05-09T03:24:16.829Z,559.00
2023-05-09T03:24:30.846Z,559.00
2023-05-09T03:24:44.841Z,559.00
2023-05-09T03:24:58.844Z,558.00
2023-05-09T03:25:26.819Z,558.00
2023-05-09T03:25:40.811Z,559.00
2023-05-09T03:25:54.829Z,559.00
2023-05-09T03:26:08.826Z,559.00
2023-05-09T03:26:36.773Z,560.00
2023-05-09T03:26:50.759Z,561.00
2023-05-09T03:27:04.760Z,561.00
2023-05-09T03:27:18.799Z,561.00
2023-05-09T03:27:46.744Z,560.00
2023-05-09T03:28:00.728Z,561.00
2023-05-09T03:28:14.723Z,561.00
2023-05-09T03:28:28.730Z,561.00
2023-05-09T03:28:56.675Z,561.00
2023-05-09T03:29:10.661Z,561.00
2023-05-09T03:29:24.653Z,560.00
2023-05-09T03:29:38.649Z,561.00
2023-05-09T03:30:06.619Z,560.00
2023-05-09T03:30:20.607Z,560.00
2023-05-09T03:30:34.596Z,560.00
2023-05-09T03:30:48.594Z,561.00
2023-05-09T03:31:02.647Z,560.00
2023-05-09T03:31:16.716Z,561.00
2023-05-09T03:31:30.766Z,561.00
2023-05-09T03:31:44.826Z,561.00
2023-05-09T03:31:58.895Z,561.00
2023-05-09T03:32:26.890Z,562.00
2023-05-09T03:32:40.918Z,562.00
2023-05-09T03:32:54.975Z,561.00
2023-05-09T03:33:09.033Z,561.00
2023-05-09T03:33:37.022Z,562.00
2023-05-09T03:33:51.018Z,562.00
2023-05-09T03:34:05.031Z,562.00
2023-05-09T03:34:19.021Z,562.00
2023-05-09T03:34:47.067Z,561.00
2023-05-09T03:35:01.057Z,562.00
2023-05-09T03:35:15.358Z,562.00
2023-05-09T03:35:29.440Z,562.00